sensor_id;sensor_type;location;lat;lon;timestamp;pressure;altitude;pressure_sealevel;temperature;humidity
73941;BME280;62294;48.554;10.202;2023-07-22T00:01:50;95201.63;;;10.93;100.00
73941;BME280;62294;48.554;10.202;2023-07-22T00:04:17;95195.44;;;10.88;100.00
73941;BME280;62294;48.554;10.202;2023-07-22T00:06:43;94747.00;;;10.88;100.00
73941;BME280;62294;48.554;10.202;2023-07-22T00:09:10;94737.69;;;10.86;100.00
73941;BME280;62294;48.554;10.202;2023-07-22T00:11:36;94716.09;;;10.82;100.00
73941;BME280;62294;48.554;10.202;2023-07-22T00:14:03;94694.84;;;10.82;100.00
73941;BME280;62294;48.554;10.202;2023-07-22T00:16:33;94683.47;;;10.87;100.00
73941;BME280;62294;48.554;10.202;2023-07-22T00:18:59;94677.91;;;10.88;100.00
73941;BME280;62294;48.554;10.202;2023-07-22T00:21:26;94660.34;;;10.87;100.00
73941;BME280;62294;48.554;10.202;2023-07-22T00:23:53;94651.50;;;10.82;100.00
73941;BME280;62294;48.554;10.202;2023-07-22T00:26:19;94640.88;;;10.77;100.00
73941;BME280;62294;48.554;10.202;2023-07-22T00:28:46;94636.88;;;10.74;100.00
73941;BME280;62294;48.554;10.202;2023-07-22T00:31:13;94613.44;;;10.71;100.00
73941;BME280;62294;48.554;10.202;2023-07-22T00:33:39;94606.53;;;10.70;100.00
73941;BME280;62294;48.554;10.202;2023-07-22T00:36:06;94590.06;;;10.73;100.00
73941;BME280;62294;48.554;10.202;2023-07-22T00:38:33;94588.50;;;10.72;100.00
73941;BME280;62294;48.554;10.202;2023-07-22T00:40:59;94580.50;;;10.72;100.00
73941;BME280;62294;48.554;10.202;2023-07-22T00:43:26;94573.00;;;10.64;100.00
73941;BME280;62294;48.554;10.202;2023-07-22T00:45:52;94567.16;;;10.62;100.00
73941;BME280;62294;48.554;10.202;2023-07-22T00:48:19;94575.13;;;10.62;100.00
73941;BME280;62294;48.554;10.202;2023-07-22T00:50:46;94560.22;;;10.61;100.00
73941;BME280;62294;48.554;10.202;2023-07-22T00:53:12;94557.78;;;10.49;100.00
73941;BME280;62294;48.554;10.202;2023-07-22T00:55:39;94552.16;;;10.46;100.00
73941;BME280;62294;48.554;10.202;2023-07-22T00:58:09;94542.56;;;10.40;100.00
73941;BME280;62294;48.554;10.202;2023-07-22T01:00:35;94525.31;;;10.47;100.00
73941;BME280;62294;48.554;10.202;2023-07-22T01:03:02;94498.03;;;10.57;100.00
73941;BME280;62294;48.554;10.202;2023-07-22T01:05:30;94482.09;;;10.57;100.00
73941;BME280;62294;48.554;10.202;2023-07-22T01:07:57;94491.69;;;10.58;100.00
73941;BME280;62294;48.554;10.202;2023-07-22T01:10:23;94485.28;;;10.59;100.00
73941;BME280;62294;48.554;10.202;2023-07-22T01:12:50;94486.38;;;10.58;100.00
73941;BME280;62294;48.554;10.202;2023-07-22T01:15:17;94489.81;;;10.58;100.00
73941;BME280;62294;48.554;10.202;2023-07-22T01:17:44;94478.63;;;10.56;100.00
73941;BME280;62294;48.554;10.202;2023-07-22T01:20:12;94483.41;;;10.54;100.00
73941;BME280;62294;48.554;10.202;2023-07-22T01:22:38;94480.75;;;10.49;100.00
73941;BME280;62294;48.554;10.202;2023-07-22T01:25:07;94473.53;;;10.50;100.00
73941;BME280;62294;48.554;10.202;2023-07-22T01:27:33;94467.19;;;10.51;100.00
73941;BME280;62294;48.554;10.202;2023-07-22T01:30:00;94462.38;;;10.48;100.00
73941;BME280;62294;48.554;10.202;2023-07-22T01:32:29;94463.09;;;10.33;100.00
73941;BME280;62294;48.554;10.202;2023-07-22T01:34:56;94467.03;;;10.26;100.00
73941;BME280;62294;48.554;10.202;2023-07-22T01:37:23;94473.25;;;10.10;100.00
73941;BME280;62294;48.554;10.202;2023-07-22T01:39:50;94464.25;;;10.11;100.00
73941;BME280;62294;48.554;10.202;2023-07-22T01:42:17;94465.75;;;10.02;100.00
73941;BME280;62294;48.554;10.202;2023-07-22T01:44:44;94464.09;;;9.95;100.00
73941;BME280;62294;48.554;10.202;2023-07-22T01:47:11;94453.44;;;9.90;100.00
73941;BME280;62294;48.554;10.202;2023-07-22T01:49:37;94444.34;;;9.81;100.00
73941;BME280;62294;48.554;10.202;2023-07-22T01:52:04;94397.22;;;9.93;100.00
73941;BME280;62294;48.554;10.202;2023-07-22T01:54:31;94382.34;;;9.92;100.00
73941;BME280;62294;48.554;10.202;2023-07-22T01:56:58;94350.47;;;9.87;100.00
73941;BME280;62294;48.554;10.202;2023-07-22T01:59:24;94340.09;;;9.86;100.00
73941;BME280;62294;48.554;10.202;2023-07-22T02:01:52;94326.59;;;9.87;100.00
73941;BME280;62294;48.554;10.202;2023-07-22T02:04:18;94322.88;;;9.88;100.00
73941;BME280;62294;48.554;10.202;2023-07-22T02:06:45;94321.25;;;9.82;100.00
73941;BME280;62294;48.554;10.202;2023-07-22T02:09:12;94310.91;;;9.86;100.00
73941;BME280;62294;48.554;10.202;2023-07-22T02:11:40;94317.25;;;9.80;100.00
73941;BME280;62294;48.554;10.202;2023-07-22T02:14:07;94292.59;;;9.84;100.00
73941;BME280;62294;48.554;10.202;2023-07-22T02:16:34;94289.91;;;9.79;100.00
73941;BME280;62294;48.554;10.202;2023-07-22T02:19:01;94281.72;;;9.81;100.00
73941;BME280;62294;48.554;10.202;2023-07-22T02:21:29;94281.44;;;9.82;100.00
73941;BME280;62294;48.554;10.202;2023-07-22T02:23:55;94283.31;;;9.82;100.00
73941;BME280;62294;48.554;10.202;2023-07-22T02:26:22;94280.94;;;9.85;100.00
73941;BME280;62294;48.554;10.202;2023-07-22T02:28:48;94287.03;;;9.86;100.00
73941;BME280;62294;48.554;10.202;2023-07-22T02:31:15;94288.06;;;9.80;100.00
73941;BME280;62294;48.554;10.202;2023-07-22T02:33:41;94288.56;;;9.77;100.00
73941;BME280;62294;48.554;10.202;2023-07-22T02:36:08;94279.34;;;9.84;100.00
73941;BME280;62294;48.554;10.202;2023-07-22T02:38:35;94329.38;;;9.34;100.00
73941;BME280;62294;48.554;10.202;2023-07-22T02:41:02;94320.66;;;9.07;100.00
73941;BME280;62294;48.554;10.202;2023-07-22T02:43:29;94263.06;;;9.29;100.00
73941;BME280;62294;48.554;10.202;2023-07-22T02:45:56;94220.75;;;9.44;100.00
73941;BME280;62294;48.554;10.202;2023-07-22T02:48:23;94189.00;;;9.59;100.00
73941;BME280;62294;48.554;10.202;2023-07-22T02:50:49;94175.25;;;9.62;100.00
73941;BME280;62294;48.554;10.202;2023-07-22T02:53:16;94169.94;;;9.62;100.00
73941;BME280;62294;48.554;10.202;2023-07-22T02:55:42;94185.06;;;9.67;100.00
73941;BME280;62294;48.554;10.202;2023-07-22T02:58:09;94217.75;;;9.36;100.00
73941;BME280;62294;48.554;10.202;2023-07-22T03:00:36;94217.75;;;9.36;100.00
73941;BME280;62294;48.554;10.202;2023-07-22T03:03:02;94203.25;;;9.43;100.00
73941;BME280;62294;48.554;10.202;2023-07-22T03:05:31;94209.09;;;9.45;100.00
73941;BME280;62294;48.554;10.202;2023-07-22T03:07:59;94218.56;;;9.36;100.00
73941;BME280;62294;48.554;10.202;2023-07-22T03:10:25;94209.84;;;9.41;100.00
73941;BME280;62294;48.554;10.202;2023-07-22T03:12:52;94220.75;;;9.44;100.00
73941;BME280;62294;48.554;10.202;2023-07-22T03:15:23;94228.44;;;9.46;100.00
73941;BME280;62294;48.554;10.202;2023-07-22T03:17:49;94271.66;;;9.09;100.00
73941;BME280;62294;48.554;10.202;2023-07-22T03:20:16;94262.56;;;9.00;100.00
73941;BME280;62294;48.554;10.202;2023-07-22T03:22:45;94227.44;;;9.15;100.00
73941;BME280;62294;48.554;10.202;2023-07-22T03:25:15;94206.81;;;9.22;100.00
73941;BME280;62294;48.554;10.202;2023-07-22T03:27:44;94193.06;;;9.25;100.00
73941;BME280;62294;48.554;10.202;2023-07-22T03:30:13;94191.44;;;9.19;100.00
73941;BME280;62294;48.554;10.202;2023-07-22T03:32:45;94186.94;;;9.24;100.00
73941;BME280;62294;48.554;10.202;2023-07-22T03:35:11;94178.22;;;9.24;100.00
73941;BME280;62294;48.554;10.202;2023-07-22T03:37:38;94187.75;;;9.25;100.00
73941;BME280;62294;48.554;10.202;2023-07-22T03:40:06;94199.13;;;9.20;100.00
73941;BME280;62294;48.554;10.202;2023-07-22T03:42:55;94194.31;;;9.12;100.00
73941;BME280;62294;48.554;10.202;2023-07-22T03:45:23;94198.84;;;9.17;100.00
73941;BME280;62294;48.554;10.202;2023-07-22T03:48:00;94217.84;;;9.09;100.00
73941;BME280;62294;48.554;10.202;2023-07-22T03:50:27;94213.63;;;9.08;100.00
73941;BME280;62294;48.554;10.202;2023-07-22T03:52:54;94208.91;;;9.20;100.00
73941;BME280;62294;48.554;10.202;2023-07-22T03:55:21;94214.25;;;9.25;100.00
73941;BME280;62294;48.554;10.202;2023-07-22T03:57:47;94234.94;;;9.23;100.00
73941;BME280;62294;48.554;10.202;2023-07-22T04:00:14;94241.03;;;9.23;100.00
73941;BME280;62294;48.554;10.202;2023-07-22T04:02:41;94236.81;;;9.27;100.00
73941;BME280;62294;48.554;10.202;2023-07-22T04:05:09;94249.22;;;9.22;100.00
73941;BME280;62294;48.554;10.202;2023-07-22T04:07:36;94262.72;;;9.20;100.00
73941;BME280;62294;48.554;10.202;2023-07-22T04:10:03;94263.59;;;9.26;100.00
73941;BME280;62294;48.554;10.202;2023-07-22T04:12:29;94253.31;;;9.35;100.00
73941;BME280;62294;48.554;10.202;2023-07-22T04:14:56;94261.00;;;9.36;100.00
73941;BME280;62294;48.554;10.202;2023-07-22T04:17:23;94263.41;;;9.43;100.00
73941;BME280;62294;48.554;10.202;2023-07-22T04:19:51;94274.34;;;9.46;100.00
73941;BME280;62294;48.554;10.202;2023-07-22T04:22:20;94285.97;;;9.45;100.00
73941;BME280;62294;48.554;10.202;2023-07-22T04:24:46;94286.56;;;9.52;100.00
73941;BME280;62294;48.554;10.202;2023-07-22T04:27:16;94287.38;;;9.53;100.00
73941;BME280;62294;48.554;10.202;2023-07-22T04:29:42;94283.72;;;9.64;100.00
73941;BME280;62294;48.554;10.202;2023-07-22T04:32:09;94305.75;;;9.64;100.00
73941;BME280;62294;48.554;10.202;2023-07-22T04:34:36;94299.13;;;9.67;100.00
73941;BME280;62294;48.554;10.202;2023-07-22T04:37:03;94310.75;;;9.61;100.00
73941;BME280;62294;48.554;10.202;2023-07-22T04:39:29;94308.69;;;9.68;100.00
73941;BME280;62294;48.554;10.202;2023-07-22T04:41:56;94298.94;;;9.83;100.00
73941;BME280;62294;48.554;10.202;2023-07-22T04:44:23;94290.53;;;9.91;100.00
73941;BME280;62294;48.554;10.202;2023-07-22T04:46:50;94272.59;;;10.14;100.00
73941;BME280;62294;48.554;10.202;2023-07-22T04:49:17;94278.78;;;10.24;100.00
73941;BME280;62294;48.554;10.202;2023-07-22T04:51:48;94263.19;;;10.53;100.00
73941;BME280;62294;48.554;10.202;2023-07-22T04:54:14;94273.06;;;10.62;100.00
73941;BME280;62294;48.554;10.202;2023-07-22T04:56:42;94281.59;;;10.69;100.00
73941;BME280;62294;48.554;10.202;2023-07-22T04:59:08;94299.66;;;10.67;100.00
73941;BME280;62294;48.554;10.202;2023-07-22T05:01:35;94308.41;;;10.73;100.00
73941;BME280;62294;48.554;10.202;2023-07-22T05:04:02;94332.59;;;10.72;100.00
73941;BME280;62294;48.554;10.202;2023-07-22T05:06:31;94341.91;;;10.74;100.00
73941;BME280;62294;48.554;10.202;2023-07-22T05:08:57;94313.28;;;11.06;100.00
73941;BME280;62294;48.554;10.202;2023-07-22T05:11:24;94332.13;;;10.95;100.00
73941;BME280;62294;48.554;10.202;2023-07-22T05:13:50;94278.72;;;11.26;100.00
73941;BME280;62294;48.554;10.202;2023-07-22T05:16:18;94227.63;;;11.75;100.00
73941;BME280;62294;48.554;10.202;2023-07-22T05:18:45;94216.34;;;12.03;100.00
73941;BME280;62294;48.554;10.202;2023-07-22T05:23:41;94209.72;;;12.54;100.00
73941;BME280;62294;48.554;10.202;2023-07-22T05:26:07;94213.78;;;12.86;100.00
73941;BME280;62294;48.554;10.202;2023-07-22T05:28:34;94260.75;;;12.81;100.00
73941;BME280;62294;48.554;10.202;2023-07-22T05:31:00;94307.16;;;12.75;100.00
73941;BME280;62294;48.554;10.202;2023-07-22T05:33:27;94330.59;;;12.78;100.00
73941;BME280;62294;48.554;10.202;2023-07-22T05:35:54;94311.50;;;13.15;100.00
73941;BME280;62294;48.554;10.202;2023-07-22T05:38:21;94312.03;;;13.51;100.00
73941;BME280;62294;48.554;10.202;2023-07-22T05:40:47;94309.91;;;13.82;100.00
73941;BME280;62294;48.554;10.202;2023-07-22T05:43:14;94340.13;;;14.06;100.00
73941;BME280;62294;48.554;10.202;2023-07-22T05:45:40;94390.94;;;14.35;100.00
73941;BME280;62294;48.554;10.202;2023-07-22T05:48:07;94455.94;;;15.06;100.00
73941;BME280;62294;48.554;10.202;2023-07-22T05:50:34;94587.81;;;15.64;100.00
73941;BME280;62294;48.554;10.202;2023-07-22T05:53:00;94671.34;;;16.37;100.00
73941;BME280;62294;48.554;10.202;2023-07-22T05:55:27;94834.81;;;16.94;100.00
73941;BME280;62294;48.554;10.202;2023-07-22T05:57:54;94995.91;;;16.89;100.00
73941;BME280;62294;48.554;10.202;2023-07-22T06:00:20;95078.03;;;17.19;100.00
73941;BME280;62294;48.554;10.202;2023-07-22T06:02:48;95132.16;;;17.60;100.00
73941;BME280;62294;48.554;10.202;2023-07-22T06:05:15;95161.91;;;17.92;100.00
73941;BME280;62294;48.554;10.202;2023-07-22T06:07:42;95181.53;;;17.93;100.00
73941;BME280;62294;48.554;10.202;2023-07-22T06:10:08;95170.00;;;18.34;100.00
73941;BME280;62294;48.554;10.202;2023-07-22T06:12:35;95151.41;;;18.62;100.00
73941;BME280;62294;48.554;10.202;2023-07-22T06:15:02;95169.91;;;17.45;100.00
73941;BME280;62294;48.554;10.202;2023-07-22T06:17:28;95170.88;;;18.30;100.00
73941;BME280;62294;48.554;10.202;2023-07-22T06:19:55;95116.81;;;18.31;100.00
73941;BME280;62294;48.554;10.202;2023-07-22T06:22:22;94986.25;;;18.71;100.00
73941;BME280;62294;48.554;10.202;2023-07-22T06:24:48;94980.91;;;18.98;100.00
73941;BME280;62294;48.554;10.202;2023-07-22T06:27:15;94763.91;;;19.47;100.00
73941;BME280;62294;48.554;10.202;2023-07-22T06:29:41;94759.16;;;19.30;100.00
73941;BME280;62294;48.554;10.202;2023-07-22T06:32:08;94616.25;;;19.57;100.00
73941;BME280;62294;48.554;10.202;2023-07-22T06:34:35;94509.03;;;19.94;100.00
73941;BME280;62294;48.554;10.202;2023-07-22T06:37:01;94310.31;;;20.58;100.00
73941;BME280;62294;48.554;10.202;2023-07-22T06:39:28;94386.03;;;19.41;100.00
73941;BME280;62294;48.554;10.202;2023-07-22T06:41:55;94373.81;;;19.35;100.00
73941;BME280;62294;48.554;10.202;2023-07-22T06:44:21;94421.22;;;19.53;100.00
73941;BME280;62294;48.554;10.202;2023-07-22T06:46:48;94428.69;;;19.17;100.00
73941;BME280;62294;48.554;10.202;2023-07-22T06:49:14;94260.00;;;20.53;100.00
73941;BME280;62294;48.554;10.202;2023-07-22T06:51:41;94181.16;;;20.68;100.00
73941;BME280;62294;48.554;10.202;2023-07-22T06:54:08;94178.09;;;20.11;100.00
73941;BME280;62294;48.554;10.202;2023-07-22T06:56:34;94151.03;;;20.87;100.00
73941;BME280;62294;48.554;10.202;2023-07-22T06:59:00;94210.41;;;19.05;100.00
73941;BME280;62294;48.554;10.202;2023-07-22T07:01:27;94247.38;;;18.57;100.00
73941;BME280;62294;48.554;10.202;2023-07-22T07:03:54;94256.25;;;19.39;100.00
73941;BME280;62294;48.554;10.202;2023-07-22T07:06:21;94207.88;;;20.61;100.00
73941;BME280;62294;48.554;10.202;2023-07-22T07:08:48;94163.38;;;20.00;100.00
73941;BME280;62294;48.554;10.202;2023-07-22T07:11:15;94161.75;;;19.61;100.00
73941;BME280;62294;48.554;10.202;2023-07-22T07:13:41;94192.97;;;18.94;100.00
73941;BME280;62294;48.554;10.202;2023-07-22T07:16:25;94156.97;;;20.22;100.00
73941;BME280;62294;48.554;10.202;2023-07-22T07:18:53;94212.25;;;18.62;100.00
73941;BME280;62294;48.554;10.202;2023-07-22T07:21:21;94209.66;;;19.39;100.00
73941;BME280;62294;48.554;10.202;2023-07-22T07:23:48;94199.53;;;20.08;100.00
73941;BME280;62294;48.554;10.202;2023-07-22T07:26:15;94202.31;;;19.73;100.00
73941;BME280;62294;48.554;10.202;2023-07-22T07:28:43;94231.59;;;20.01;100.00
73941;BME280;62294;48.554;10.202;2023-07-22T07:31:10;94196.72;;;22.07;100.00
73941;BME280;62294;48.554;10.202;2023-07-22T07:33:36;94040.94;;;23.10;100.00
73941;BME280;62294;48.554;10.202;2023-07-22T07:36:03;94022.69;;;24.13;100.00
73941;BME280;62294;48.554;10.202;2023-07-22T07:38:31;94074.75;;;23.71;100.00
73941;BME280;62294;48.554;10.202;2023-07-22T07:41:03;94109.84;;;23.09;100.00
73941;BME280;62294;48.554;10.202;2023-07-22T07:43:30;94146.13;;;22.32;100.00
73941;BME280;62294;48.554;10.202;2023-07-22T07:46:17;94164.84;;;22.25;100.00
73941;BME280;62294;48.554;10.202;2023-07-22T07:48:46;94187.78;;;21.62;100.00
73941;BME280;62294;48.554;10.202;2023-07-22T07:51:14;94191.06;;;22.00;100.00
73941;BME280;62294;48.554;10.202;2023-07-22T07:53:42;94177.38;;;22.41;100.00
73941;BME280;62294;48.554;10.202;2023-07-22T07:56:10;94219.91;;;24.21;100.00
73941;BME280;62294;48.554;10.202;2023-07-22T07:58:37;94293.94;;;23.66;100.00
73941;BME280;62294;48.554;10.202;2023-07-22T08:01:04;94350.75;;;22.45;100.00
73941;BME280;62294;48.554;10.202;2023-07-22T08:03:32;94372.50;;;22.69;100.00
73941;BME280;62294;48.554;10.202;2023-07-22T08:05:59;94486.28;;;21.99;100.00
73941;BME280;62294;48.554;10.202;2023-07-22T08:08:26;94478.09;;;24.71;100.00
73941;BME280;62294;48.554;10.202;2023-07-22T08:13:25;94678.28;;;22.53;100.00
73941;BME280;62294;48.554;10.202;2023-07-22T08:15:53;94596.75;;;22.76;100.00
73941;BME280;62294;48.554;10.202;2023-07-22T08:18:20;94687.28;;;23.57;100.00
73941;BME280;62294;48.554;10.202;2023-07-22T08:20:47;94670.75;;;22.68;100.00
73941;BME280;62294;48.554;10.202;2023-07-22T08:23:14;94704.28;;;23.66;100.00
73941;BME280;62294;48.554;10.202;2023-07-22T08:25:40;94719.63;;;21.10;100.00
73941;BME280;62294;48.554;10.202;2023-07-22T08:28:07;94668.69;;;21.72;100.00
73941;BME280;62294;48.554;10.202;2023-07-22T08:30:34;94718.19;;;22.36;100.00
73941;BME280;62294;48.554;10.202;2023-07-22T08:33:00;94727.09;;;22.28;100.00
73941;BME280;62294;48.554;10.202;2023-07-22T08:35:27;94804.78;;;24.23;100.00
73941;BME280;62294;48.554;10.202;2023-07-22T08:37:54;94775.97;;;23.07;100.00
73941;BME280;62294;48.554;10.202;2023-07-22T08:40:20;94677.91;;;22.64;100.00
73941;BME280;62294;48.554;10.202;2023-07-22T08:42:48;94652.09;;;21.99;100.00
73941;BME280;62294;48.554;10.202;2023-07-22T08:45:17;94632.72;;;21.80;100.00
73941;BME280;62294;48.554;10.202;2023-07-22T08:47:46;94598.72;;;21.62;100.00
73941;BME280;62294;48.554;10.202;2023-07-22T08:50:18;94622.97;;;22.54;100.00
73941;BME280;62294;48.554;10.202;2023-07-22T08:52:47;94572.59;;;24.14;100.00
73941;BME280;62294;48.554;10.202;2023-07-22T08:55:14;95616.28;;;26.13;100.00
73941;BME280;62294;48.554;10.202;2023-07-22T08:57:41;95778.63;;;25.54;100.00
73941;BME280;62294;48.554;10.202;2023-07-22T09:00:08;95731.59;;;22.99;100.00
73941;BME280;62294;48.554;10.202;2023-07-22T09:02:36;95623.69;;;21.25;100.00
73941;BME280;62294;48.554;10.202;2023-07-22T09:05:02;95426.09;;;20.53;100.00
73941;BME280;62294;48.554;10.202;2023-07-22T09:07:30;95312.69;;;20.67;100.00
73941;BME280;62294;48.554;10.202;2023-07-22T09:09:57;95323.59;;;21.52;100.00
73941;BME280;62294;48.554;10.202;2023-07-22T09:12:24;95512.31;;;23.20;100.00
73941;BME280;62294;48.554;10.202;2023-07-22T09:14:52;95694.06;;;24.99;100.00
73941;BME280;62294;48.554;10.202;2023-07-22T09:17:18;95933.47;;;26.93;100.00
73941;BME280;62294;48.554;10.202;2023-07-22T09:19:44;96031.31;;;26.17;100.00
73941;BME280;62294;48.554;10.202;2023-07-22T09:22:11;96069.75;;;26.24;100.00
73941;BME280;62294;48.554;10.202;2023-07-22T09:24:38;96085.00;;;24.31;100.00
73941;BME280;62294;48.554;10.202;2023-07-22T09:27:04;96083.84;;;24.59;100.00
73941;BME280;62294;48.554;10.202;2023-07-22T09:29:36;96053.06;;;25.69;100.00
73941;BME280;62294;48.554;10.202;2023-07-22T09:32:03;96051.69;;;22.98;100.00
73941;BME280;62294;48.554;10.202;2023-07-22T09:34:29;96023.56;;;25.63;100.00
73941;BME280;62294;48.554;10.202;2023-07-22T09:36:58;96020.84;;;25.01;100.00
73941;BME280;62294;48.554;10.202;2023-07-22T09:39:30;96005.31;;;23.86;100.00
73941;BME280;62294;48.554;10.202;2023-07-22T09:41:56;96012.94;;;23.84;100.00
73941;BME280;62294;48.554;10.202;2023-07-22T09:44:30;95975.25;;;24.54;100.00
73941;BME280;62294;48.554;10.202;2023-07-22T09:46:58;95955.59;;;25.41;100.00
73941;BME280;62294;48.554;10.202;2023-07-22T09:49:24;95959.84;;;23.91;100.00
73941;BME280;62294;48.554;10.202;2023-07-22T09:51:51;95970.06;;;22.72;100.00
73941;BME280;62294;48.554;10.202;2023-07-22T09:54:28;95961.63;;;22.74;100.00
73941;BME280;62294;48.554;10.202;2023-07-22T09:56:58;95963.97;;;22.62;100.00
73941;BME280;62294;48.554;10.202;2023-07-22T09:59:28;96015.38;;;21.68;100.00
73941;BME280;62294;48.554;10.202;2023-07-22T10:01:55;96036.09;;;21.78;100.00
73941;BME280;62294;48.554;10.202;2023-07-22T10:04:28;96035.53;;;21.57;100.00
73941;BME280;62294;48.554;10.202;2023-07-22T10:06:58;96038.50;;;22.03;100.00
73941;BME280;62294;48.554;10.202;2023-07-22T10:09:25;96026.19;;;22.48;100.00
73941;BME280;62294;48.554;10.202;2023-07-22T10:11:55;96033.09;;;22.40;100.00
73941;BME280;62294;48.554;10.202;2023-07-22T10:14:22;96032.34;;;22.91;100.00
73941;BME280;62294;48.554;10.202;2023-07-22T10:16:49;96018.53;;;23.19;100.00
73941;BME280;62294;48.554;10.202;2023-07-22T10:19:16;96000.06;;;22.57;100.00
73941;BME280;62294;48.554;10.202;2023-07-22T10:21:43;95993.25;;;23.78;100.00
73941;BME280;62294;48.554;10.202;2023-07-22T10:24:10;95964.50;;;23.50;100.00
73941;BME280;62294;48.554;10.202;2023-07-22T10:26:39;95968.34;;;22.07;100.00
73941;BME280;62294;48.554;10.202;2023-07-22T10:29:13;95965.44;;;22.54;100.00
73941;BME280;62294;48.554;10.202;2023-07-22T10:31:40;95967.16;;;24.05;100.00
73941;BME280;62294;48.554;10.202;2023-07-22T10:34:07;95938.16;;;25.98;100.00
73941;BME280;62294;48.554;10.202;2023-07-22T10:36:35;95943.69;;;24.66;100.00
73941;BME280;62294;48.554;10.202;2023-07-22T10:39:02;95944.63;;;23.68;100.00
73941;BME280;62294;48.554;10.202;2023-07-22T10:41:32;95943.75;;;24.53;100.00
73941;BME280;62294;48.554;10.202;2023-07-22T10:43:59;95925.94;;;25.22;100.00
73941;BME280;62294;48.554;10.202;2023-07-22T10:46:36;95931.16;;;27.12;100.00
73941;BME280;62294;48.554;10.202;2023-07-22T10:49:14;95926.75;;;27.95;100.00
73941;BME280;62294;48.554;10.202;2023-07-22T10:51:49;95929.84;;;27.18;100.00
73941;BME280;62294;48.554;10.202;2023-07-22T10:54:32;95932.81;;;26.96;100.00
73941;BME280;62294;48.554;10.202;2023-07-22T10:59:49;95916.00;;;23.98;100.00
73941;BME280;62294;48.554;10.202;2023-07-22T11:02:26;95916.03;;;25.91;100.00
73941;BME280;62294;48.554;10.202;2023-07-22T11:04:58;95916.56;;;24.53;100.00
73941;BME280;62294;48.554;10.202;2023-07-22T11:07:33;95906.06;;;25.69;100.00
73941;BME280;62294;48.554;10.202;2023-07-22T11:10:13;95901.66;;;24.42;100.00
73941;BME280;62294;48.554;10.202;2023-07-22T11:12:42;95895.69;;;26.48;100.00
73941;BME280;62294;48.554;10.202;2023-07-22T11:15:10;95890.66;;;27.31;100.00
73941;BME280;62294;48.554;10.202;2023-07-22T11:17:37;95882.69;;;28.58;100.00
73941;BME280;62294;48.554;10.202;2023-07-22T11:20:04;95883.81;;;28.37;100.00
73941;BME280;62294;48.554;10.202;2023-07-22T11:22:31;95886.69;;;26.56;100.00
73941;BME280;62294;48.554;10.202;2023-07-22T11:24:57;95888.69;;;25.39;100.00
73941;BME280;62294;48.554;10.202;2023-07-22T11:27:24;95883.09;;;24.88;100.00
73941;BME280;62294;48.554;10.202;2023-07-22T11:29:52;95874.06;;;27.36;100.00
73941;BME280;62294;48.554;10.202;2023-07-22T11:32:20;95874.19;;;27.48;100.00
73941;BME280;62294;48.554;10.202;2023-07-22T11:34:51;95870.69;;;25.61;100.00
73941;BME280;62294;48.554;10.202;2023-07-22T11:37:20;95863.56;;;25.43;100.00
73941;BME280;62294;48.554;10.202;2023-07-22T11:39:46;95866.06;;;25.87;100.00
73941;BME280;62294;48.554;10.202;2023-07-22T11:42:12;95856.38;;;26.66;100.00
73941;BME280;62294;48.554;10.202;2023-07-22T11:44:40;95851.47;;;27.27;100.00
73941;BME280;62294;48.554;10.202;2023-07-22T11:47:07;95854.88;;;26.14;100.00
73941;BME280;62294;48.554;10.202;2023-07-22T11:49:36;95851.25;;;26.56;100.00
73941;BME280;62294;48.554;10.202;2023-07-22T11:52:07;95866.34;;;25.51;100.00
73941;BME280;62294;48.554;10.202;2023-07-22T11:54:37;95868.09;;;23.44;100.00
73941;BME280;62294;48.554;10.202;2023-07-22T11:57:15;95853.69;;;25.47;100.00
73941;BME280;62294;48.554;10.202;2023-07-22T11:59:44;95859.34;;;25.76;100.00
73941;BME280;62294;48.554;10.202;2023-07-22T12:02:16;95845.72;;;28.20;100.00
73941;BME280;62294;48.554;10.202;2023-07-22T12:04:51;95851.72;;;27.51;100.00
73941;BME280;62294;48.554;10.202;2023-07-22T12:07:25;95844.59;;;26.20;100.00
73941;BME280;62294;48.554;10.202;2023-07-22T12:09:54;95836.75;;;26.90;100.00
73941;BME280;62294;48.554;10.202;2023-07-22T12:12:21;95834.56;;;27.13;100.00
73941;BME280;62294;48.554;10.202;2023-07-22T12:14:47;95847.47;;;24.67;100.00
73941;BME280;62294;48.554;10.202;2023-07-22T12:17:14;95844.81;;;24.23;100.00
73941;BME280;62294;48.554;10.202;2023-07-22T12:19:51;95842.56;;;24.78;100.00
73941;BME280;62294;48.554;10.202;2023-07-22T12:22:18;95836.53;;;27.04;100.00
73941;BME280;62294;48.554;10.202;2023-07-22T12:24:47;95824.28;;;27.68;100.00
73941;BME280;62294;48.554;10.202;2023-07-22T12:27:13;95826.25;;;27.59;100.00
73941;BME280;62294;48.554;10.202;2023-07-22T12:29:40;95823.97;;;27.40;100.00
73941;BME280;62294;48.554;10.202;2023-07-22T12:32:07;95825.06;;;27.19;100.00
73941;BME280;62294;48.554;10.202;2023-07-22T12:34:33;95829.84;;;25.61;100.00
73941;BME280;62294;48.554;10.202;2023-07-22T12:37:00;95824.09;;;24.97;100.00
73941;BME280;62294;48.554;10.202;2023-07-22T12:39:27;95817.22;;;26.16;100.00
73941;BME280;62294;48.554;10.202;2023-07-22T12:41:55;95811.59;;;25.61;100.00
73941;BME280;62294;48.554;10.202;2023-07-22T12:44:22;95810.75;;;24.79;100.00
73941;BME280;62294;48.554;10.202;2023-07-22T12:46:49;95800.84;;;25.99;100.00
73941;BME280;62294;48.554;10.202;2023-07-22T12:49:15;95808.41;;;25.93;100.00
73941;BME280;62294;48.554;10.202;2023-07-22T12:51:42;95801.69;;;26.71;100.00
73941;BME280;62294;48.554;10.202;2023-07-22T12:54:08;95800.53;;;26.81;100.00